| time (UTC) | temp F | wind direction | speed MPH | gust MPH | rain 1hr in | rain 24hr in | rain mn in | humidity % | barometer mb |
| 20260507203031 | 73 | 285 | 8.0 | 18.0 | 0.00 | 0.00 | 0.00 | 33 | 1010.4 |
| 20260507201532 | 72 | 288 | 8.0 | 18.0 | 0.00 | 0.00 | 0.00 | 34 | 1010.6 |
| 20260507200032 | 70 | 294 | 7.0 | 20.0 | 0.00 | 0.00 | 0.00 | 35 | 1010.8 |
| 20260507194531 | 71 | 286 | 8.0 | 15.0 | 0.00 | 0.00 | 0.00 | 36 | 1010.9 |
| 20260507193032 | 70 | 281 | 8.0 | 19.0 | 0.00 | 0.00 | 0.00 | 38 | 1011.0 |
| 20260507190034 | 67 | 289 | 10.0 | 21.0 | 0.00 | 0.00 | 0.00 | 42 | 1011.5 |
| 20260507184607 | 67 | 297 | 10.0 | 19.0 | 0.00 | 0.00 | 0.00 | 43 | 1011.7 |
| 20260507183040 | 66 | 303 | 8.0 | 17.0 | 0.00 | 0.00 | 0.00 | 44 | 1011.9 |
| 20260507181533 | 66 | 304 | 9.0 | 19.0 | 0.00 | 0.00 | 0.00 | 46 | 1012.1 |
| 20260507180107 | 65 | 295 | 7.0 | 16.0 | 0.00 | 0.00 | 0.00 | 48 | 1012.1 |
| 20260507174533 | 64 | 291 | 8.0 | 21.0 | 0.00 | 0.00 | 0.00 | 49 | 1012.2 |
| 20260507173029 | 64 | 296 | 7.0 | 16.0 | 0.00 | 0.00 | 0.00 | 50 | 1012.5 |
| 20260507171535 | 64 | 303 | 5.0 | 15.0 | 0.00 | 0.00 | 0.00 | 53 | 1012.7 |
| 20260507170036 | 63 | 315 | 6.0 | 13.0 | 0.00 | 0.00 | 0.00 | 55 | 1012.7 |
| 20260507164532 | 62 | 298 | 8.0 | 17.0 | 0.00 | 0.00 | 0.00 | 55 | 1012.8 |
| 20260507163032 | 62 | 292 | 7.0 | 13.0 | 0.00 | 0.00 | 0.00 | 57 | 1012.8 |
| 20260507161608 | 61 | 277 | 8.0 | 18.0 | 0.00 | 0.00 | 0.00 | 58 | 1012.9 |
| 20260507160034 | 60 | 274 | 8.0 | 18.0 | 0.00 | 0.00 | 0.00 | 60 | 1013.1 |
| 20260507154606 | 60 | 268 | 8.0 | 15.0 | 0.00 | 0.00 | 0.00 | 60 | 1013.2 |
| 20260507153033 | 60 | 259 | 7.0 | 13.0 | 0.00 | 0.00 | 0.00 | 62 | 1013.4 |
| 20260507151531 | 59 | 269 | 6.0 | 12.0 | 0.00 | 0.00 | 0.00 | 64 | 1013.3 |
| 20260507150034 | 58 | 275 | 6.0 | 13.0 | 0.00 | 0.00 | 0.00 | 66 | 1013.4 |
| 20260507144534 | 57 | 276 | 7.0 | 16.0 | 0.00 | 0.00 | 0.00 | 68 | 1013.3 |
| 20260507141606 | 56 | 271 | 10.0 | 18.0 | 0.00 | 0.00 | 0.00 | 70 | 1013.1 |
| 20260507140026 | 55 | 271 | 10.0 | 17.0 | 0.00 | 0.00 | 0.00 | 72 | 1012.9 |
| 20260507134534 | 55 | 270 | 11.0 | 18.0 | 0.00 | 0.00 | 0.00 | 73 | 1012.8 |
| 20260507133030 | 55 | 272 | 10.0 | 17.0 | 0.00 | 0.00 | 0.00 | 73 | 1012.8 |
| 20260507131531 | 54 | 272 | 10.0 | 16.0 | 0.00 | 0.00 | 0.00 | 73 | 1012.9 |
| 20260507124531 | 54 | 281 | 6.0 | 11.0 | 0.00 | 0.00 | 0.00 | 73 | 1013.0 |
| 20260507123029 | 55 | 286 | 6.0 | 11.0 | 0.00 | 0.00 | 0.00 | 73 | 1013.1 |
| 20260507121532 | 55 | 284 | 6.0 | 11.0 | 0.00 | 0.00 | 0.00 | 73 | 1013.0 |
| 20260507120145 | 55 | 285 | 6.0 | 15.0 | 0.00 | 0.00 | 0.00 | 73 | 1012.8 |
| 20260507113032 | 56 | 273 | 8.0 | 18.0 | 0.00 | 0.00 | 0.00 | 73 | 1012.3 |
| 20260507111530 | 56 | 263 | 8.0 | 13.0 | 0.00 | 0.00 | 0.00 | 72 | 1012.2 |
| 20260507110032 | 56 | 257 | 10.0 | 18.0 | 0.00 | 0.00 | 0.00 | 72 | 1011.9 |
| 20260507104607 | 56 | 254 | 11.0 | 18.0 | 0.00 | 0.00 | 0.00 | 73 | 1011.7 |
| 20260507103028 | 57 | 259 | 9.0 | 18.0 | 0.00 | 0.00 | 0.00 | 73 | 1011.9 |
| 20260507101533 | 57 | 257 | 9.0 | 17.0 | 0.00 | 0.00 | 0.00 | 72 | 1012.0 |
| 20260507100036 | 57 | 257 | 8.0 | 15.0 | 0.00 | 0.00 | 0.00 | 71 | 1012.1 |
| 20260507094526 | 58 | 255 | 7.0 | 13.0 | 0.00 | 0.00 | 0.00 | 71 | 1012.1 |
| 20260507091531 | 58 | 269 | 5.0 | 12.0 | 0.00 | 0.00 | 0.00 | 71 | 1012.3 |
| 20260507090105 | 59 | 323 | 5.0 | 10.0 | 0.00 | 0.00 | 0.00 | 70 | 1012.3 |
| 20260507084529 | 59 | 346 | 4.0 | 8.0 | 0.00 | 0.00 | 0.00 | 71 | 1012.1 |
| 20260507083034 | 59 | 344 | 4.0 | 11.0 | 0.00 | 0.00 | 0.00 | 71 | 1012.0 |
| 20260507081604 | 59 | 332 | 3.0 | 9.0 | 0.00 | 0.00 | 0.00 | 71 | 1012.0 |
| 20260507074532 | 60 | 288 | 3.0 | 13.0 | 0.00 | 0.00 | 0.00 | 70 | 1012.1 |
| 20260507071604 | 60 | 265 | 9.0 | 17.0 | 0.00 | 0.00 | 0.00 | 70 | 1011.9 |
| 20260507070105 | 61 | 267 | 10.0 | 21.0 | 0.00 | 0.00 | 0.00 | 69 | 1011.9 |
| 20260507064532 | 61 | 268 | 9.0 | 18.0 | 0.00 | 0.00 | 0.00 | 70 | 1011.9 |
| 20260507063031 | 61 | 272 | 7.0 | 16.0 | 0.00 | 0.00 | 0.00 | 69 | 1012.0 |
| 20260507060031 | 62 | 270 | 7.0 | 14.0 | 0.00 | 0.00 | 0.00 | 69 | 1012.3 |
| 20260507054531 | 62 | 269 | 7.0 | 14.0 | 0.00 | 0.00 | 0.00 | 69 | 1012.4 |
| 20260507053031 | 62 | 267 | 7.0 | 16.0 | 0.00 | 0.00 | 0.00 | 68 | 1012.4 |
| 20260507051529 | 62 | 265 | 8.0 | 16.0 | 0.00 | 0.00 | 0.00 | 67 | 1012.4 |
| 20260507050032 | 63 | 264 | 8.0 | 17.0 | 0.00 | 0.00 | 0.00 | 65 | 1012.4 |
| 20260507041607 | 65 | 278 | 4.0 | 12.0 | 0.00 | 0.00 | 0.00 | 56 | 1012.2 |
| 20260507040037 | 66 | 248 | 6.0 | 16.0 | 0.00 | 0.00 | 0.00 | 52 | 1011.9 |
| 20260507034604 | 67 | 240 | 6.0 | 14.0 | 0.00 | 0.00 | 0.00 | 51 | 1011.8 |
| 20260507033033 | 67 | 238 | 5.0 | 13.0 | 0.00 | 0.00 | 0.00 | 49 | 1011.7 |
| 20260507031531 | 68 | 262 | 6.0 | 16.0 | 0.00 | 0.00 | 0.00 | 49 | 1011.5 |
| 20260507030030 | 69 | 269 | 6.0 | 15.0 | 0.00 | 0.00 | 0.00 | 48 | 1011.5 |
| 20260507024650 | 69 | 272 | 6.0 | 14.0 | 0.00 | 0.00 | 0.00 | 47 | 1011.5 |
| 20260507023031 | 68 | 283 | 4.0 | 11.0 | 0.00 | 0.00 | 0.00 | 49 | 1011.4 |
| 20260507021532 | 68 | 274 | 4.0 | 8.0 | 0.00 | 0.00 | 0.00 | 49 | 1011.4 |
| 20260507020034 | 69 | 266 | 7.0 | 17.0 | 0.00 | 0.00 | 0.00 | 49 | 1011.2 |
| 20260507013030 | 69 | 292 | 7.0 | 15.0 | 0.00 | 0.00 | 0.00 | 50 | 1011.1 |
| 20260507011530 | 69 | 296 | 7.0 | 16.0 | 0.00 | 0.00 | 0.00 | 49 | 1011.1 |
| 20260507004530 | 70 | 279 | 11.0 | 21.0 | 0.00 | 0.00 | 0.00 | 47 | 1011.0 |
| 20260507003031 | 70 | 277 | 10.0 | 24.0 | 0.00 | 0.00 | 0.00 | 46 | 1010.9 |
| 20260507000031 | 71 | 274 | 12.0 | 24.0 | 0.00 | 0.00 | 0.00 | 45 | 1010.5 |
| 20260506234531 | 72 | 273 | 13.0 | 29.0 | 0.00 | 0.00 | 0.00 | 43 | 1010.4 |
| 20260506231530 | 73 | 273 | 16.0 | 31.0 | 0.00 | 0.00 | 0.00 | 43 | 1010.1 |
| 20260506230032 | 72 | 271 | 14.0 | 27.0 | 0.00 | 0.00 | 0.00 | 44 | 1010.1 |
| 20260506224529 | 74 | 274 | 14.0 | 25.0 | 0.00 | 0.00 | 0.00 | 43 | 1010.3 |
| 20260506223104 | 75 | 270 | 11.0 | 22.0 | 0.00 | 0.00 | 0.00 | 44 | 1010.7 |
| 20260506221530 | 73 | 267 | 11.0 | 23.0 | 0.00 | 0.00 | 0.00 | 44 | 1011.0 |
| 20260506220030 | 73 | 278 | 11.0 | 19.0 | 0.00 | 0.00 | 0.00 | 44 | 1011.1 |
| 20260506214538 | 75 | 280 | 11.0 | 22.0 | 0.00 | 0.00 | 0.00 | 43 | 1010.9 |
| 20260506213030 | 75 | 270 | 14.0 | 26.0 | 0.00 | 0.00 | 0.00 | 43 | 1010.5 |
| 20260506211604 | 75 | 274 | 15.0 | 27.0 | 0.00 | 0.00 | 0.00 | 43 | 1010.2 |
| 20260506210033 | 75 | 266 | 14.0 | 28.0 | 0.00 | 0.00 | 0.00 | 44 | 1010.3 |
| 20260506204528 | 74 | 271 | 13.0 | 24.0 | 0.00 | 0.00 | 0.00 | 45 | 1010.6 |